createdAt,value
2019-02-15T00:01:13.793Z,4.90
2019-02-15T00:03:42.737Z,4.75
2019-02-15T00:06:11.939Z,4.72
2019-02-15T00:08:42.557Z,4.70
2019-02-15T00:11:14.236Z,4.85
2019-02-15T00:13:43.516Z,5.12
2019-02-15T00:16:14.097Z,4.90
2019-02-15T00:19:03.156Z,5.00
2019-02-15T00:21:32.124Z,5.28
2019-02-15T00:24:02.797Z,5.10
2019-02-15T00:26:31.665Z,4.62
2019-02-15T00:29:02.279Z,4.97
2019-02-15T00:31:32.916Z,4.87
2019-02-15T00:34:02.136Z,4.80
2019-02-15T00:36:31.216Z,5.15
2019-02-15T00:39:00.096Z,5.00
2019-02-15T00:41:29.216Z,4.92
2019-02-15T00:43:58.236Z,5.22
2019-02-15T00:46:38.132Z,5.25
2019-02-15T00:49:07.445Z,5.40
2019-02-15T00:51:44.837Z,5.08
2019-02-15T00:54:15.465Z,5.05
2019-02-15T00:59:31.198Z,5.12
2019-02-15T01:02:06.505Z,5.17
2019-02-15T01:04:53.496Z,5.40
2019-02-15T01:07:27.097Z,5.28
2019-02-15T01:10:03.677Z,5.03
2019-02-15T01:12:35.202Z,5.45
2019-02-15T01:15:04.557Z,4.90
2019-02-15T01:17:33.604Z,4.97
2019-02-15T01:20:02.977Z,5.65
2019-02-15T01:22:32.297Z,4.92
2019-02-15T01:25:01.877Z,5.90
2019-02-15T01:27:45.777Z,5.45
2019-02-15T01:30:25.776Z,5.53
2019-02-15T01:33:06.298Z,5.22
2019-02-15T01:35:45.826Z,5.30
2019-02-15T01:38:19.337Z,5.30
2019-02-15T01:41:03.277Z,5.83
2019-02-15T01:43:40.412Z,5.42
2019-02-15T01:46:13.956Z,5.55
2019-02-15T01:48:43.158Z,5.90
2019-02-15T01:51:12.116Z,5.15
2019-02-15T01:53:41.157Z,5.80
2019-02-15T01:56:10.377Z,5.35
2019-02-15T01:58:42.401Z,5.15
2019-02-15T02:01:15.799Z,5.62
2019-02-15T02:03:44.827Z,5.70
2019-02-15T02:06:15.425Z,5.83
2019-02-15T02:08:46.018Z,5.37
2019-02-15T02:13:49.625Z,5.97
2019-02-15T02:16:15.616Z,5.58
2019-02-15T02:18:45.608Z,5.58
2019-02-15T02:21:14.756Z,5.60
2019-02-15T02:23:45.279Z,5.75
2019-02-15T02:26:15.639Z,6.03
2019-02-15T02:28:46.016Z,5.75
2019-02-15T02:31:15.180Z,5.70
2019-02-15T02:33:44.256Z,6.12
2019-02-15T02:36:15.177Z,5.78
2019-02-15T02:38:44.218Z,6.08
2019-02-15T02:41:16.496Z,6.33
2019-02-15T02:43:45.676Z,5.87
2019-02-15T02:46:16.078Z,5.92
2019-02-15T02:48:45.421Z,6.03
2019-02-15T02:51:16.144Z,5.70
2019-02-15T02:53:45.413Z,5.53
2019-02-15T02:56:14.657Z,6.15
2019-02-15T02:58:43.783Z,5.90
2019-02-15T03:01:12.977Z,6.60
2019-02-15T03:03:42.317Z,6.30
2019-02-15T03:06:11.517Z,6.60
2019-02-15T03:08:40.630Z,6.12
2019-02-15T03:11:09.736Z,6.00
2019-02-15T03:13:38.756Z,6.25
2019-02-15T03:16:08.038Z,6.17
2019-02-15T03:18:38.463Z,6.20
2019-02-15T03:21:07.458Z,6.80
2019-02-15T03:23:36.398Z,6.33
2019-02-15T03:26:06.977Z,6.22
2019-02-15T03:28:36.518Z,5.97
2019-02-15T03:31:05.540Z,6.47
2019-02-15T03:33:36.538Z,6.45
2019-02-15T03:36:07.037Z,6.30
2019-02-15T03:38:37.796Z,6.40
2019-02-15T03:43:36.888Z,6.80
2019-02-15T03:46:05.897Z,6.55
2019-02-15T03:48:34.717Z,6.95
2019-02-15T03:51:03.716Z,6.62
2019-02-15T03:53:33.736Z,6.45
2019-02-15T03:56:02.757Z,6.55
2019-02-15T03:58:35.037Z,6.75
2019-02-15T04:01:04.358Z,6.60
2019-02-15T04:03:34.537Z,6.28
2019-02-15T04:06:04.558Z,7.17
2019-02-15T04:08:33.856Z,6.85
2019-02-15T04:11:04.397Z,7.42
2019-02-15T04:13:33.817Z,7.15
2019-02-15T04:16:05.918Z,6.92
2019-02-15T04:18:37.098Z,6.42
2019-02-15T04:21:09.057Z,6.70
2019-02-15T04:23:38.065Z,7.33
2019-02-15T04:26:06.856Z,6.65
2019-02-15T04:28:35.839Z,6.65
2019-02-15T04:31:05.077Z,6.35
2019-02-15T04:33:34.299Z,6.97
2019-02-15T04:36:03.590Z,6.78
2019-02-15T04:38:32.718Z,6.60
2019-02-15T04:41:01.804Z,6.55
2019-02-15T04:43:30.926Z,7.30
2019-02-15T04:46:00.417Z,7.05
2019-02-15T04:48:30.418Z,7.00
2019-02-15T04:50:59.256Z,7.28
2019-02-15T04:53:28.377Z,6.80
2019-02-15T04:55:59.096Z,7.03
2019-02-15T05:00:58.138Z,7.10
2019-02-15T05:03:28.517Z,6.90
2019-02-15T05:05:57.657Z,7.60
2019-02-15T05:08:26.976Z,8.00
2019-02-15T05:10:56.461Z,6.55
2019-02-15T05:13:26.519Z,7.03
2019-02-15T05:15:55.697Z,7.78
2019-02-15T05:18:24.564Z,7.10
2019-02-15T05:20:53.458Z,7.47
2019-02-15T05:23:22.593Z,8.00
2019-02-15T05:25:51.997Z,7.45
2019-02-15T05:28:21.916Z,7.05
2019-02-15T05:30:52.437Z,7.37
2019-02-15T05:33:26.556Z,8.15
2019-02-15T05:35:56.696Z,7.40
2019-02-15T05:38:27.436Z,7.72
2019-02-15T05:40:56.600Z,7.40
2019-02-15T05:43:25.717Z,7.37
2019-02-15T05:45:55.924Z,7.78
2019-02-15T05:48:24.836Z,7.35
2019-02-15T05:50:57.393Z,7.97
2019-02-15T05:53:29.484Z,7.50
2019-02-15T05:56:01.363Z,7.50
2019-02-15T05:58:30.356Z,7.50
2019-02-15T06:01:01.489Z,7.40
2019-02-15T06:03:32.338Z,8.50
2019-02-15T06:06:01.236Z,7.62
2019-02-15T06:08:31.598Z,8.45
2019-02-15T06:11:07.547Z,7.87
2019-02-15T06:13:34.837Z,8.18
2019-02-15T06:16:03.737Z,7.60
2019-02-15T06:18:32.701Z,7.50
2019-02-15T06:21:02.108Z,8.03
2019-02-15T06:23:32.831Z,7.75
2019-02-15T06:26:03.776Z,7.20
2019-02-15T06:28:33.129Z,7.40
2019-02-15T06:31:02.496Z,7.53
2019-02-15T06:33:31.745Z,8.03
2019-02-15T06:36:01.918Z,8.28
2019-02-15T06:38:35.071Z,7.78
2019-02-15T06:41:06.751Z,7.45
2019-02-15T06:43:36.157Z,7.33
2019-02-15T06:46:07.157Z,7.58
2019-02-15T06:48:36.776Z,7.78
2019-02-15T06:51:07.577Z,7.17
2019-02-15T06:53:39.496Z,7.53
2019-02-15T06:56:08.378Z,7.58
2019-02-15T06:58:45.680Z,7.45
2019-02-15T07:01:21.816Z,11.88
2019-02-15T07:03:52.876Z,11.85
2019-02-15T07:06:22.098Z,11.48
2019-02-15T07:08:50.916Z,10.40
2019-02-15T07:11:21.363Z,12.15
2019-02-15T07:13:50.776Z,10.75
2019-02-15T07:16:19.976Z,10.55
2019-02-15T07:18:48.824Z,12.25
2019-02-15T07:21:18.577Z,13.03
2019-02-15T07:23:48.039Z,11.63
2019-02-15T07:26:19.537Z,12.25
2019-02-15T07:28:48.741Z,13.88
2019-02-15T07:31:18.296Z,12.90
2019-02-15T07:33:47.178Z,11.38
2019-02-15T07:36:17.297Z,12.37
2019-02-15T07:38:46.336Z,13.62
2019-02-15T07:41:15.436Z,12.68
2019-02-15T07:43:45.656Z,12.58
2019-02-15T07:46:14.691Z,13.43
2019-02-15T07:48:45.396Z,12.85
2019-02-15T07:53:44.296Z,13.18
2019-02-15T07:56:13.451Z,13.58
2019-02-15T07:58:42.497Z,14.05
2019-02-15T08:01:13.196Z,12.70
2019-02-15T08:03:42.116Z,13.03
2019-02-15T08:06:11.416Z,14.43
2019-02-15T08:08:41.368Z,13.43
2019-02-15T08:11:10.342Z,14.05
2019-02-15T08:13:40.236Z,14.05
2019-02-15T08:16:12.296Z,13.83
2019-02-15T08:18:41.209Z,13.72
2019-02-15T08:21:13.160Z,13.35
2019-02-15T08:23:42.864Z,13.53
2019-02-15T08:26:12.876Z,13.90
2019-02-15T08:28:43.316Z,13.45
2019-02-15T08:31:13.918Z,13.72
2019-02-15T08:33:42.937Z,13.32
2019-02-15T08:36:12.597Z,14.13
2019-02-15T08:38:43.458Z,13.93
2019-02-15T08:43:41.457Z,13.13
2019-02-15T08:46:10.625Z,13.93
2019-02-15T08:48:46.190Z,13.08
2019-02-15T08:51:14.185Z,12.95
2019-02-15T08:53:43.599Z,13.53
2019-02-15T08:56:12.896Z,12.82
2019-02-15T08:58:41.781Z,12.88
2019-02-15T09:01:12.718Z,12.80
2019-02-15T09:03:41.596Z,12.65
2019-02-15T09:06:12.477Z,13.03
2019-02-15T09:11:14.037Z,12.33
2019-02-15T09:13:44.236Z,12.63
2019-02-15T09:16:14.997Z,11.90
2019-02-15T09:21:13.256Z,12.50
2019-02-15T09:23:42.545Z,11.70
2019-02-15T09:26:17.978Z,11.48
2019-02-15T09:28:49.577Z,11.30
2019-02-15T09:31:18.796Z,11.28
2019-02-15T09:33:48.817Z,11.50
2019-02-15T09:36:18.776Z,11.35
2019-02-15T09:38:48.696Z,11.33
2019-02-15T09:41:18.818Z,10.83
2019-02-15T09:43:47.691Z,10.95
2019-02-15T09:46:20.093Z,11.40
2019-02-15T09:48:49.280Z,10.78
2019-02-15T09:51:18.078Z,10.70
2019-02-15T09:53:47.496Z,10.72
2019-02-15T09:56:16.579Z,10.88
2019-02-15T09:58:47.496Z,10.55
2019-02-15T10:01:18.376Z,10.95
2019-02-15T10:06:16.017Z,10.00
2019-02-15T10:08:45.904Z,9.93
2019-02-15T10:11:15.876Z,9.97
2019-02-15T10:13:44.736Z,9.78
2019-02-15T10:16:15.716Z,9.73
2019-02-15T10:18:45.076Z,9.60
2019-02-15T10:21:15.716Z,9.80
2019-02-15T10:23:44.857Z,9.25
2019-02-15T10:26:15.420Z,9.65
2019-02-15T10:28:45.357Z,9.15
2019-02-15T10:31:16.358Z,9.20
2019-02-15T10:33:45.518Z,8.53
2019-02-15T10:36:16.077Z,9.30
2019-02-15T10:38:45.317Z,8.78
2019-02-15T10:41:15.656Z,8.85
2019-02-15T10:43:44.936Z,8.55
2019-02-15T10:46:13.936Z,8.80
2019-02-15T10:48:45.761Z,9.05
2019-02-15T10:51:16.296Z,8.45
2019-02-15T10:53:45.816Z,8.33
2019-02-15T10:56:15.276Z,8.23
2019-02-15T10:58:45.697Z,8.25
2019-02-15T11:01:14.658Z,8.98
2019-02-15T11:03:43.664Z,8.23
2019-02-15T11:06:14.677Z,8.50
2019-02-15T11:08:44.696Z,8.50
2019-02-15T11:11:14.316Z,8.53
2019-02-15T11:13:44.356Z,7.62
2019-02-15T11:16:13.616Z,8.60
2019-02-15T11:18:44.677Z,8.40
2019-02-15T11:21:14.097Z,8.03
2019-02-15T11:23:43.436Z,8.38
2019-02-15T11:26:12.697Z,8.28
2019-02-15T11:28:41.662Z,8.90
2019-02-15T11:31:11.799Z,8.00
2019-02-15T11:33:41.776Z,8.85
2019-02-15T11:36:10.796Z,8.65
2019-02-15T11:38:41.078Z,8.23
2019-02-15T11:41:11.561Z,8.90
2019-02-15T11:43:44.736Z,9.00
2019-02-15T11:46:15.476Z,8.33
2019-02-15T11:51:12.797Z,8.53
2019-02-15T11:53:41.739Z,8.28
2019-02-15T11:56:12.311Z,8.60
2019-02-15T11:58:42.805Z,8.33
2019-02-15T12:01:13.417Z,7.90
2019-02-15T12:03:42.225Z,8.18
2019-02-15T12:06:11.718Z,8.25
2019-02-15T12:08:40.477Z,7.87
2019-02-15T12:11:11.066Z,8.00
2019-02-15T12:13:40.436Z,7.80
2019-02-15T12:16:12.376Z,7.92
2019-02-15T12:18:43.757Z,7.87
2019-02-15T12:21:14.796Z,7.50
2019-02-15T12:23:45.322Z,7.42
2019-02-15T12:26:14.321Z,7.70
2019-02-15T12:28:44.837Z,7.80
2019-02-15T12:31:15.778Z,7.75
2019-02-15T12:33:46.496Z,7.15
2019-02-15T12:36:15.876Z,6.72
2019-02-15T12:38:44.777Z,7.40
2019-02-15T12:41:14.239Z,7.30
2019-02-15T12:43:43.621Z,7.20
2019-02-15T12:46:12.549Z,6.92
2019-02-15T12:48:41.755Z,6.87
2019-02-15T12:51:11.305Z,7.00
2019-02-15T12:53:40.498Z,6.83
2019-02-15T12:56:10.301Z,7.03
2019-02-15T12:58:39.612Z,7.15
2019-02-15T13:01:11.456Z,6.92
2019-02-15T13:03:40.625Z,7.22
2019-02-15T13:06:09.658Z,6.95
2019-02-15T13:08:39.665Z,6.90
2019-02-15T13:11:10.317Z,7.17
2019-02-15T13:16:09.147Z,7.40
2019-02-15T13:18:40.165Z,6.67
2019-02-15T13:21:10.217Z,7.47
2019-02-15T13:23:39.616Z,7.33
2019-02-15T13:26:09.008Z,6.92
2019-02-15T13:28:38.597Z,6.75
2019-02-15T13:31:07.897Z,7.00
2019-02-15T13:33:37.196Z,7.20
2019-02-15T13:36:06.825Z,7.03
2019-02-15T13:38:37.021Z,7.08
2019-02-15T13:41:06.297Z,6.92
2019-02-15T13:43:36.776Z,6.65
2019-02-15T13:46:05.664Z,6.85
2019-02-15T13:48:34.505Z,7.33
2019-02-15T13:51:03.526Z,7.03
2019-02-15T13:53:32.296Z,7.45
2019-02-15T13:56:01.718Z,7.28
2019-02-15T13:58:32.505Z,6.40
2019-02-15T14:01:01.536Z,7.22
2019-02-15T14:03:32.840Z,6.72
2019-02-15T14:06:02.097Z,6.95
2019-02-15T14:08:31.197Z,7.10
2019-02-15T14:11:00.564Z,7.20
2019-02-15T14:13:29.456Z,6.60
2019-02-15T14:16:00.121Z,7.10
2019-02-15T14:18:30.556Z,7.37
2019-02-15T14:23:51.666Z,7.33
2019-02-15T14:26:20.720Z,6.70
2019-02-15T14:28:51.309Z,7.80
2019-02-15T14:31:20.617Z,7.40
2019-02-15T14:33:50.745Z,6.67
2019-02-15T14:36:19.645Z,7.37
2019-02-15T14:38:48.816Z,6.60
2019-02-15T14:41:18.142Z,6.95
2019-02-15T14:43:49.676Z,7.00
2019-02-15T14:46:18.796Z,7.30
2019-02-15T14:48:47.977Z,6.72
2019-02-15T14:51:19.917Z,7.28
2019-02-15T14:53:52.105Z,7.03
2019-02-15T14:56:22.616Z,7.72
2019-02-15T14:58:51.705Z,7.97
2019-02-15T15:01:22.249Z,7.15
2019-02-15T15:03:51.557Z,7.95
2019-02-15T15:06:20.878Z,7.50
2019-02-15T15:08:50.833Z,8.25
2019-02-15T15:11:21.648Z,7.92
2019-02-15T15:16:20.997Z,7.40
2019-02-15T15:18:51.096Z,7.90
2019-02-15T15:21:21.757Z,7.67
2019-02-15T15:26:19.336Z,7.50
2019-02-15T15:28:48.178Z,7.70
2019-02-15T15:31:18.865Z,7.80
2019-02-15T15:33:49.417Z,8.65
2019-02-15T15:36:21.278Z,8.98
2019-02-15T15:38:50.857Z,8.88
2019-02-15T15:41:20.145Z,8.05
2019-02-15T15:43:49.303Z,8.15
2019-02-15T15:46:18.201Z,7.83
2019-02-15T15:48:50.114Z,8.23
2019-02-15T15:51:22.057Z,8.15
2019-02-15T15:53:50.956Z,8.50
2019-02-15T15:56:20.905Z,8.68
2019-02-15T15:58:51.907Z,7.93
2019-02-15T16:01:23.284Z,8.15
2019-02-15T16:03:52.245Z,8.10
2019-02-15T16:06:24.420Z,8.53
2019-02-15T16:08:52.425Z,8.10
2019-02-15T16:11:23.024Z,8.80
2019-02-15T16:13:53.016Z,8.40
2019-02-15T16:16:23.844Z,8.08
2019-02-15T16:18:54.404Z,9.10
2019-02-15T16:21:25.360Z,9.00
2019-02-15T16:23:55.321Z,9.08
2019-02-15T16:26:24.399Z,9.13
2019-02-15T16:28:53.316Z,7.95
2019-02-15T16:31:22.244Z,8.68
2019-02-15T16:33:51.318Z,8.63
2019-02-15T16:36:22.463Z,8.93
2019-02-15T16:38:52.016Z,8.65
2019-02-15T16:41:20.944Z,9.00
2019-02-15T16:43:50.246Z,9.85
2019-02-15T16:46:20.617Z,9.38
2019-02-15T16:48:49.867Z,9.13
2019-02-15T16:51:20.217Z,8.50
2019-02-15T16:54:10.029Z,9.90
2019-02-15T16:56:40.216Z,9.37
2019-02-15T16:59:09.659Z,9.10
2019-02-15T17:01:40.564Z,9.75
2019-02-15T17:04:09.577Z,9.58
2019-02-15T17:06:38.561Z,9.05
2019-02-15T17:09:09.220Z,9.03
2019-02-15T17:14:07.897Z,9.60
2019-02-15T17:16:37.776Z,10.00
2019-02-15T17:19:29.124Z,10.53
2019-02-15T17:21:57.979Z,10.03
2019-02-15T17:24:27.096Z,10.32
2019-02-15T17:26:57.256Z,10.70
2019-02-15T17:29:26.382Z,9.93
2019-02-15T17:31:55.277Z,10.90
2019-02-15T17:34:26.917Z,10.63
2019-02-15T17:36:57.597Z,10.85
2019-02-15T17:41:54.858Z,10.53
2019-02-15T17:44:27.117Z,10.53
2019-02-15T17:46:57.659Z,11.18
2019-02-15T17:49:28.156Z,11.40
2019-02-15T17:52:00.098Z,11.55
2019-02-15T17:54:28.859Z,11.33
2019-02-15T17:56:58.045Z,10.70
2019-02-15T17:59:26.906Z,10.63
2019-02-15T18:01:55.797Z,11.22
2019-02-15T18:04:25.836Z,10.75
2019-02-15T18:06:54.697Z,10.95
2019-02-15T18:09:23.537Z,10.98
2019-02-15T18:11:52.937Z,11.03
2019-02-15T18:14:21.838Z,10.23
2019-02-15T18:16:50.756Z,10.15
2019-02-15T18:19:19.636Z,10.98
2019-02-15T18:21:48.659Z,10.63
2019-02-15T18:24:20.236Z,10.95
2019-02-15T18:26:51.180Z,10.98
2019-02-15T18:29:20.761Z,10.50
2019-02-15T18:31:49.678Z,11.03
2019-02-15T18:34:20.276Z,11.55
2019-02-15T18:36:49.403Z,10.98
2019-02-15T18:39:20.178Z,11.70
2019-02-15T18:41:49.199Z,11.20
2019-02-15T18:44:18.438Z,10.78
2019-02-15T18:46:48.072Z,11.40
2019-02-15T18:49:19.437Z,11.53
2019-02-15T18:51:48.178Z,11.53
2019-02-15T18:54:17.397Z,11.40
2019-02-15T18:56:46.256Z,10.90
2019-02-15T18:59:15.167Z,11.05
2019-02-15T19:01:46.076Z,10.72
2019-02-15T19:04:15.489Z,11.05
2019-02-15T19:06:44.419Z,11.18
2019-02-15T19:09:18.248Z,11.33
2019-02-15T19:11:46.828Z,11.73
2019-02-15T19:14:15.701Z,10.95
2019-02-15T19:16:44.676Z,11.38
2019-02-15T19:19:16.542Z,10.40
2019-02-15T19:21:47.507Z,11.55
2019-02-15T19:24:17.657Z,11.20
2019-02-15T19:26:48.396Z,10.90
2019-02-15T19:31:47.399Z,11.40
2019-02-15T19:34:16.336Z,10.88
2019-02-15T19:36:46.497Z,11.25
2019-02-15T19:39:15.944Z,11.00
2019-02-15T19:41:46.672Z,11.57
2019-02-15T19:44:16.797Z,11.25
2019-02-15T19:46:46.016Z,12.05
2019-02-15T19:49:17.716Z,11.83
2019-02-15T19:51:50.102Z,11.40
2019-02-15T19:54:22.037Z,10.90
2019-02-15T19:56:51.116Z,11.85
2019-02-15T19:59:20.016Z,11.30
2019-02-15T20:01:50.376Z,11.50
2019-02-15T20:04:19.636Z,11.65
2019-02-15T20:06:48.717Z,11.38
2019-02-15T20:09:21.736Z,12.00
2019-02-15T20:11:50.598Z,11.30
2019-02-15T20:14:21.241Z,11.15
2019-02-15T20:19:20.197Z,11.73
2019-02-15T20:21:51.037Z,11.65
2019-02-15T20:24:19.796Z,11.15
2019-02-15T20:26:48.696Z,11.48
2019-02-15T20:29:17.964Z,11.20
2019-02-15T20:31:47.116Z,11.43
2019-02-15T20:34:16.466Z,10.82
2019-02-15T20:36:45.505Z,11.25
2019-02-15T20:39:14.296Z,11.30
2019-02-15T20:41:44.436Z,11.45
2019-02-15T20:44:15.256Z,11.15
2019-02-15T20:49:13.157Z,11.55
2019-02-15T20:51:42.400Z,11.20
2019-02-15T20:54:12.756Z,10.82
2019-02-15T20:56:43.536Z,10.80
2019-02-15T20:59:12.696Z,11.48
2019-02-15T21:01:43.807Z,11.12
2019-02-15T21:04:14.458Z,11.43
2019-02-15T21:06:46.324Z,10.78
2019-02-15T21:09:15.319Z,11.20
2019-02-15T21:11:44.225Z,11.43
2019-02-15T21:14:13.319Z,11.22
2019-02-15T21:16:42.401Z,10.88
2019-02-15T21:19:11.376Z,11.35
2019-02-15T21:21:40.394Z,11.63
2019-02-15T21:24:09.355Z,10.95
2019-02-15T21:26:38.264Z,11.15
2019-02-15T21:29:07.287Z,10.98
2019-02-15T21:31:36.916Z,11.73
2019-02-15T21:34:05.752Z,11.00
2019-02-15T21:36:36.324Z,11.38
2019-02-15T21:39:09.136Z,10.72
2019-02-15T21:41:37.976Z,11.03
2019-02-15T21:44:06.976Z,10.30
2019-02-15T21:46:37.200Z,10.53
2019-02-15T21:49:08.344Z,11.43
2019-02-15T21:51:38.062Z,11.22
2019-02-15T21:54:07.276Z,11.18
2019-02-15T21:56:36.556Z,11.03
2019-02-15T21:59:05.636Z,11.03
2019-02-15T22:01:35.479Z,11.70
2019-02-15T22:04:07.297Z,11.60
2019-02-15T22:06:36.357Z,11.48
2019-02-15T22:09:07.582Z,11.78
2019-02-15T22:11:36.516Z,11.45
2019-02-15T22:14:05.414Z,11.80
2019-02-15T22:16:36.036Z,11.57
2019-02-15T22:19:05.068Z,11.63
2019-02-15T22:21:35.668Z,11.33
2019-02-15T22:24:06.238Z,11.33
2019-02-15T22:26:35.205Z,11.50
2019-02-15T22:29:07.156Z,12.07
2019-02-15T22:31:36.337Z,11.88
2019-02-15T22:34:06.898Z,11.33
2019-02-15T22:36:36.124Z,11.30
2019-02-15T22:39:05.436Z,11.63
2019-02-15T22:41:37.596Z,12.23
2019-02-15T22:44:06.710Z,11.60
2019-02-15T22:46:37.756Z,11.65
2019-02-15T22:49:07.416Z,11.63
2019-02-15T22:51:37.021Z,12.17
2019-02-15T22:54:06.136Z,11.90
2019-02-15T22:56:35.197Z,11.50
2019-02-15T22:59:04.113Z,11.95
2019-02-15T23:01:34.397Z,11.88
2019-02-15T23:04:03.516Z,11.65
2019-02-15T23:06:32.697Z,11.73
2019-02-15T23:09:01.796Z,11.48
2019-02-15T23:11:32.136Z,11.48
2019-02-15T23:14:02.736Z,12.05
2019-02-15T23:16:33.419Z,11.80
2019-02-15T23:19:02.405Z,11.85
2019-02-15T23:21:31.477Z,12.23
2019-02-15T23:24:01.025Z,11.63
2019-02-15T23:26:31.956Z,12.03
2019-02-15T23:29:02.436Z,12.37
2019-02-15T23:31:33.316Z,12.70
2019-02-15T23:34:02.236Z,12.80
2019-02-15T23:36:32.376Z,12.98
2019-02-15T23:39:01.416Z,12.85
2019-02-15T23:41:31.196Z,11.85
2019-02-15T23:44:01.177Z,12.43
2019-02-15T23:46:31.957Z,12.90
2019-02-15T23:51:30.237Z,12.45
2019-02-15T23:53:59.233Z,14.03
2019-02-15T23:56:28.296Z,12.55
2019-02-15T23:58:57.124Z,12.82
